^^
Station Historical Data
Daily Summary for January 27, 2018 Units:  Both    English   Metric
« Previous Day
Next Day »
Daily Weekly Monthly Yearly Custom
  High: Low: Average:
Temperature: TemperatureF °F /  -17.8 °C 66.6 °F /  19.2 °C 77.4 °F /  25.2 °C
Dew Point: DewpointF °F /  -17.8 °C 41.7 °F /  5.4 °C 47.1 °F /  8.4 °C
Humidity: Humidity% 26% 35%
Wind Speed: WindSpeedMPHmph /  0km/h - -18.6mph /  -29.9km/h
Wind Gust: WindSpeedGustMPHmph /  0km/h - -
Wind- -
Pressure: PressureIn in /  0 hPa 29.52 in /  999.5 hPa -
Precipitation: 0.01 in /  0.25 mm    
Historical Graphs
 
 
Tabular Data for January 27, 2018
Time Temperature Dew Point Pressure Wind Wind Speed Wind Gust Humidity Rainfall Rate (Hourly) solar Conditions
TemperatureF °F /  -17.8 °C DewpointF °F /  -17.8 °C PressureInin /  0hPa Calm     Humidity% HourlyPrecipInin /  0mm SoftwareType W/m2 Conditions
08:42 67.6 °F /  19.8 °C 41.7 °F /  5.4 °C 29.65in /  1003.9hPa North -999.9mph /  -1609.1km/h -999.0mph /  -1607.7km/h 39% 0.00in /  0mm meteobridge W/m2
08:48 68.4 °F /  20.2 °C 42.4 °F /  5.8 °C 29.65in /  1003.9hPa ENE 0.9mph /  1.4km/h 3.0mph /  4.8km/h 39% 0.00in /  0mm meteobridge W/m2
08:55 68.5 °F /  20.3 °C 41.9 °F /  5.5 °C 29.65in /  1003.9hPa Calm   2.0mph /  3.2km/h 38% 0.00in /  0mm meteobridge W/m2
09:01 68.0 °F /  20 °C 43.3 °F /  6.3 °C 29.65in /  1003.9hPa Calm   6.0mph /  9.7km/h 41% 0.00in /  0mm meteobridge W/m2
09:07 67.6 °F /  19.8 °C 45.0 °F /  7.2 °C 29.65in /  1003.9hPa SSW 6.9mph /  11.1km/h 10.0mph /  16.1km/h 44% 0.00in /  0mm meteobridge W/m2
09:13 66.7 °F /  19.3 °C 45.9 °F /  7.7 °C 29.65in /  1003.9hPa South 8.1mph /  13km/h 10.0mph /  16.1km/h 47% 0.00in /  0mm meteobridge W/m2
09:19 66.6 °F /  19.2 °C 46.2 °F /  7.9 °C 29.65in /  1003.9hPa SSW 2.0mph /  3.2km/h 6.0mph /  9.7km/h 48% 0.00in /  0mm meteobridge W/m2
09:25 67.3 °F /  19.6 °C 48.0 °F /  8.9 °C 29.66in /  1004.3hPa SSW 6.0mph /  9.7km/h 7.0mph /  11.3km/h 50% 0.00in /  0mm meteobridge W/m2
09:31 68.0 °F /  20 °C 48.2 °F /  9 °C 29.65in /  1003.9hPa SSW 2.0mph /  3.2km/h 7.0mph /  11.3km/h 49% 0.00in /  0mm meteobridge W/m2
09:37 68.2 °F /  20.1 °C 47.7 °F /  8.7 °C 29.65in /  1003.9hPa SSW 2.9mph /  4.7km/h 4.0mph /  6.4km/h 48% 0.00in /  0mm meteobridge W/m2
09:44 68.4 °F /  20.2 °C 47.8 °F /  8.8 °C 29.66in /  1004.3hPa Calm   4.0mph /  6.4km/h 48% 0.00in /  0mm meteobridge W/m2
09:50 69.1 °F /  20.6 °C 48.6 °F /  9.2 °C 29.65in /  1003.9hPa Calm   3.0mph /  4.8km/h 48% 0.00in /  0mm meteobridge W/m2
09:56 70.0 °F /  21.1 °C 48.7 °F /  9.3 °C 29.65in /  1003.9hPa NE 2.0mph /  3.2km/h 4.0mph /  6.4km/h 47% 0.00in /  0mm meteobridge W/m2
10:03 71.2 °F /  21.8 °C 48.2 °F /  9 °C 29.65in /  1003.9hPa NNE 4.9mph /  7.9km/h 6.0mph /  9.7km/h 44% 0.00in /  0mm meteobridge W/m2
10:09 72.1 °F /  22.3 °C 47.1 °F /  8.4 °C 29.65in /  1003.9hPa NW 2.0mph /  3.2km/h 5.0mph /  8km/h 41% 0.00in /  0mm meteobridge W/m2
10:15 73.2 °F /  22.9 °C 46.0 °F /  7.8 °C 29.65in /  1003.9hPa North 2.9mph /  4.7km/h 4.0mph /  6.4km/h 38% 0.00in /  0mm meteobridge W/m2
10:21 74.5 °F /  23.6 °C 45.0 °F /  7.2 °C 29.65in /  1003.9hPa North 4.0mph /  6.4km/h 6.0mph /  9.7km/h 35% 0.00in /  0mm meteobridge W/m2
10:39 76.8 °F /  24.9 °C 45.5 °F /  7.5 °C 29.64in /  1003.6hPa West 2.9mph /  4.7km/h 3.0mph /  4.8km/h 33% 0.00in /  0mm meteobridge W/m2
10:45 77.2 °F /  25.1 °C 44.2 °F /  6.8 °C 29.64in /  1003.6hPa NNW 2.0mph /  3.2km/h 7.0mph /  11.3km/h 31% 0.00in /  0mm meteobridge W/m2
10:51 76.6 °F /  24.8 °C 45.3 °F /  7.4 °C 29.64in /  1003.6hPa NNE 4.0mph /  6.4km/h 7.0mph /  11.3km/h 33% 0.00in /  0mm meteobridge W/m2
10:57 75.9 °F /  24.4 °C 45.5 °F /  7.5 °C 29.64in /  1003.6hPa Calm   3.0mph /  4.8km/h 34% 0.00in /  0mm meteobridge W/m2
11:04 76.1 °F /  24.5 °C 45.7 °F /  7.6 °C 29.64in /  1003.6hPa SE 2.0mph /  3.2km/h 3.0mph /  4.8km/h 34% 0.00in /  0mm meteobridge W/m2
11:10 77.4 °F /  25.2 °C 46.0 °F /  7.8 °C 29.64in /  1003.6hPa NNE 10.1mph /  16.3km/h 14.0mph /  22.5km/h 33% 0.00in /  0mm meteobridge W/m2
11:16 77.2 °F /  25.1 °C 45.0 °F /  7.2 °C 29.64in /  1003.6hPa North 6.0mph /  9.7km/h 10.0mph /  16.1km/h 32% 0.00in /  0mm meteobridge W/m2
11:22 77.4 °F /  25.2 °C 45.1 °F /  7.3 °C 29.63in /  1003.3hPa SW 4.0mph /  6.4km/h 4.0mph /  6.4km/h 32% 0.00in /  0mm meteobridge W/m2
11:28 77.0 °F /  25 °C 45.0 °F /  7.2 °C 29.63in /  1003.3hPa SSW 2.0mph /  3.2km/h 10.0mph /  16.1km/h 32% 0.00in /  0mm meteobridge W/m2
11:34 77.7 °F /  25.4 °C 45.5 °F /  7.5 °C 29.64in /  1003.6hPa Calm   4.0mph /  6.4km/h 32% 0.00in /  0mm meteobridge W/m2
11:40 77.2 °F /  25.1 °C 45.0 °F /  7.2 °C 29.63in /  1003.3hPa SW 2.0mph /  3.2km/h 2.0mph /  3.2km/h 32% 0.00in /  0mm meteobridge W/m2
11:46 78.1 °F /  25.6 °C 45.9 °F /  7.7 °C 29.63in /  1003.3hPa South 2.9mph /  4.7km/h 4.0mph /  6.4km/h 32% 0.00in /  0mm meteobridge W/m2
11:52 79.9 °F /  26.6 °C 46.6 °F /  8.1 °C 29.63in /  1003.3hPa SSE 0.9mph /  1.4km/h 2.0mph /  3.2km/h 31% 0.00in /  0mm meteobridge W/m2
11:58 82.4 °F /  28 °C 47.8 °F /  8.8 °C 29.63in /  1003.3hPa SE 2.0mph /  3.2km/h 4.0mph /  6.4km/h 30% 0.00in /  0mm meteobridge W/m2
12:05 82.6 °F /  28.1 °C 47.1 °F /  8.4 °C 29.63in /  1003.3hPa SSE 4.0mph /  6.4km/h 6.0mph /  9.7km/h 29% 0.00in /  0mm meteobridge W/m2
12:11 81.9 °F /  27.7 °C 45.5 °F /  7.5 °C 29.63in /  1003.3hPa Calm   4.0mph /  6.4km/h 28% 0.00in /  0mm meteobridge W/m2
12:17 82.9 °F /  28.3 °C 46.4 °F /  8 °C 29.63in /  1003.3hPa Calm   5.0mph /  8km/h 28% 0.00in /  0mm meteobridge W/m2
12:23 82.6 °F /  28.1 °C 45.1 °F /  7.3 °C 29.62in /  1002.9hPa North 10.1mph /  16.3km/h 15.0mph /  24.1km/h 27% 0.00in /  0mm meteobridge W/m2
12:29 81.3 °F /  27.4 °C 45.1 °F /  7.3 °C 29.63in /  1003.3hPa ENE 2.0mph /  3.2km/h 7.0mph /  11.3km/h 28% 0.00in /  0mm meteobridge W/m2
12:35 82.2 °F /  27.9 °C 45.9 °F /  7.7 °C 29.62in /  1002.9hPa North 4.9mph /  7.9km/h 6.0mph /  9.7km/h 28% 0.00in /  0mm meteobridge W/m2
12:41 82.2 °F /  27.9 °C 45.9 °F /  7.7 °C 29.62in /  1002.9hPa NNW 2.9mph /  4.7km/h 10.0mph /  16.1km/h 28% 0.00in /  0mm meteobridge W/m2
12:47 82.4 °F /  28 °C 46.0 °F /  7.8 °C 29.62in /  1002.9hPa South 4.0mph /  6.4km/h 6.0mph /  9.7km/h 28% 0.00in /  0mm meteobridge W/m2
12:53 83.1 °F /  28.4 °C 47.7 °F /  8.7 °C 29.61in /  1002.6hPa East 2.0mph /  3.2km/h 6.0mph /  9.7km/h 29% 0.00in /  0mm meteobridge W/m2
13:16 84.4 °F /  29.1 °C 47.7 °F /  8.7 °C 29.60in /  1002.3hPa NE 8.1mph /  13km/h 10.0mph /  16.1km/h 28% 0.00in /  0mm meteobridge W/m2
13:22 84.0 °F /  28.9 °C 47.5 °F /  8.6 °C 29.60in /  1002.3hPa Calm   7.0mph /  11.3km/h 28% 0.00in /  0mm meteobridge W/m2
13:28 85.3 °F /  29.6 °C 47.5 °F /  8.6 °C 29.60in /  1002.3hPa NNE 16.1mph /  25.9km/h 16.1mph /  25.9km/h 27% 0.00in /  0mm meteobridge W/m2
13:34 84.6 °F /  29.2 °C 47.8 °F /  8.8 °C 29.60in /  1002.3hPa ENE 2.9mph /  4.7km/h 13.0mph /  20.9km/h 28% 0.00in /  0mm meteobridge W/m2
13:55 86.2 °F /  30.1 °C 47.3 °F /  8.5 °C 29.59in /  1001.9hPa South 4.9mph /  7.9km/h 12.0mph /  19.3km/h 26% 0.00in /  0mm meteobridge W/m2
14:15 84.0 °F /  28.9 °C 46.4 °F /  8 °C 29.58in /  1001.6hPa NNE 10.1mph /  16.3km/h 12.0mph /  19.3km/h 27% 0.00in /  0mm meteobridge W/m2
14:21 85.5 °F /  29.7 °C 47.7 °F /  8.7 °C 29.58in /  1001.6hPa South 8.9mph /  14.3km/h 13.0mph /  20.9km/h 27% 0.00in /  0mm meteobridge W/m2
14:27 84.9 °F /  29.4 °C 47.1 °F /  8.4 °C 29.57in /  1001.2hPa South 4.0mph /  6.4km/h 8.0mph /  12.9km/h 27% 0.00in /  0mm meteobridge W/m2
14:33 84.7 °F /  29.3 °C 47.1 °F /  8.4 °C 29.57in /  1001.2hPa NNE 6.9mph /  11.1km/h 12.0mph /  19.3km/h 27% 0.00in /  0mm meteobridge W/m2
14:39 85.6 °F /  29.8 °C 46.8 °F /  8.2 °C 29.57in /  1001.2hPa NE 6.0mph /  9.7km/h 10.0mph /  16.1km/h 26% 0.00in /  0mm meteobridge W/m2
14:46 86.4 °F /  30.2 °C 47.5 °F /  8.6 °C 29.56in /  1000.9hPa NNE 12.1mph /  19.5km/h 15.0mph /  24.1km/h 26% 0.00in /  0mm meteobridge W/m2
14:52 85.5 °F /  29.7 °C 47.7 °F /  8.7 °C 29.56in /  1000.9hPa NNE 2.0mph /  3.2km/h 4.0mph /  6.4km/h 27% 0.00in /  0mm meteobridge W/m2
14:58 84.6 °F /  29.2 °C 46.9 °F /  8.3 °C 29.57in /  1001.2hPa Calm   12.0mph /  19.3km/h 27% 0.00in /  0mm meteobridge W/m2
15:04 84.2 °F /  29 °C 46.6 °F /  8.1 °C 29.56in /  1000.9hPa North 0.9mph /  1.4km/h 6.0mph /  9.7km/h 27% 0.00in /  0mm meteobridge W/m2
15:22 85.1 °F /  29.5 °C 46.4 °F /  8 °C 29.54in /  1000.2hPa NNE 10.1mph /  16.3km/h 11.0mph /  17.7km/h 26% 0.00in /  0mm meteobridge W/m2
15:29 84.4 °F /  29.1 °C 45.7 °F /  7.6 °C 29.54in /  1000.2hPa North 2.0mph /  3.2km/h 5.0mph /  8km/h 26% 0.00in /  0mm meteobridge W/m2
15:35 84.7 °F /  29.3 °C 47.1 °F /  8.4 °C 29.54in /  1000.2hPa East 0.9mph /  1.4km/h 4.0mph /  6.4km/h 27% 0.00in /  0mm meteobridge W/m2
15:41 84.9 °F /  29.4 °C 46.2 °F /  7.9 °C 29.54in /  1000.2hPa South 6.9mph /  11.1km/h 12.0mph /  19.3km/h 26% 0.00in /  0mm meteobridge W/m2
15:47 84.7 °F /  29.3 °C 47.1 °F /  8.4 °C 29.53in /  999.9hPa ESE 4.9mph /  7.9km/h 6.0mph /  9.7km/h 27% 0.00in /  0mm meteobridge W/m2
15:53 84.6 °F /  29.2 °C 46.9 °F /  8.3 °C 29.53in /  999.9hPa SW 2.9mph /  4.7km/h 6.0mph /  9.7km/h 27% 0.00in /  0mm meteobridge W/m2
15:59 84.6 °F /  29.2 °C 46.9 °F /  8.3 °C 29.53in /  999.9hPa South 2.0mph /  3.2km/h 6.0mph /  9.7km/h 27% 0.00in /  0mm meteobridge W/m2
16:05 84.6 °F /  29.2 °C 46.9 °F /  8.3 °C 29.52in /  999.5hPa Calm   6.0mph /  9.7km/h 27% 0.00in /  0mm meteobridge W/m2
16:11 86.2 °F /  30.1 °C 47.3 °F /  8.5 °C 29.52in /  999.5hPa SSW 4.9mph /  7.9km/h 9.0mph /  14.5km/h 26% 0.00in /  0mm meteobridge W/m2
16:17 86.2 °F /  30.1 °C 47.3 °F /  8.5 °C 29.52in /  999.5hPa NE 2.0mph /  3.2km/h 7.0mph /  11.3km/h 26% 0.00in /  0mm meteobridge W/m2
16:24 84.9 °F /  29.4 °C 47.1 °F /  8.4 °C 29.52in /  999.5hPa NE 4.9mph /  7.9km/h 10.0mph /  16.1km/h 27% 0.00in /  0mm meteobridge W/m2
16:30 83.5 °F /  28.6 °C 46.9 °F /  8.3 °C 29.52in /  999.5hPa NNW 11.0mph /  17.7km/h 13.0mph /  20.9km/h 28% 0.00in /  0mm meteobridge W/m2
16:36 82.0 °F /  27.8 °C 47.5 °F /  8.6 °C 29.52in /  999.5hPa South 2.9mph /  4.7km/h 11.0mph /  17.7km/h 30% 0.00in /  0mm meteobridge W/m2
16:42 81.3 °F /  27.4 °C 47.8 °F /  8.8 °C 29.52in /  999.5hPa SW 4.0mph /  6.4km/h 4.0mph /  6.4km/h 31% 0.00in /  0mm meteobridge W/m2
16:48 81.1 °F /  27.3 °C 47.7 °F /  8.7 °C 29.53in /  999.9hPa SW 4.0mph /  6.4km/h 6.0mph /  9.7km/h 31% 0.00in /  0mm meteobridge W/m2
16:54 80.4 °F /  26.9 °C 47.8 °F /  8.8 °C 29.52in /  999.5hPa South 2.0mph /  3.2km/h 7.0mph /  11.3km/h 32% 0.00in /  0mm meteobridge W/m2
17:00 80.1 °F /  26.7 °C 48.4 °F /  9.1 °C 29.52in /  999.5hPa SSW 6.0mph /  9.7km/h 7.0mph /  11.3km/h 33% 0.00in /  0mm meteobridge W/m2
17:07 79.5 °F /  26.4 °C 48.7 °F /  9.3 °C 29.52in /  999.5hPa South 4.0mph /  6.4km/h 6.0mph /  9.7km/h 34% 0.00in /  0mm meteobridge W/m2
17:13 77.9 °F /  25.5 °C 51.6 °F /  10.9 °C 29.53in /  999.9hPa South 2.0mph /  3.2km/h 6.0mph /  9.7km/h 40% 0.00in /  0mm meteobridge W/m2
17:19 76.3 °F /  24.6 °C 56.3 °F /  13.5 °C 29.52in /  999.5hPa South 2.0mph /  3.2km/h 3.0mph /  4.8km/h 50% 0.00in /  0mm meteobridge W/m2
17:25 75.7 °F /  24.3 °C 57.9 °F /  14.4 °C 29.52in /  999.5hPa Calm   1.0mph /  1.6km/h 54% 0.00in /  0mm meteobridge W/m2
17:31 75.0 °F /  23.9 °C 57.7 °F /  14.3 °C 29.52in /  999.5hPa Calm     55% 0.00in /  0mm meteobridge W/m2
17:37 73.9 °F /  23.3 °C 54.7 °F /  12.6 °C 29.52in /  999.5hPa Calm   2.0mph /  3.2km/h 51% 0.01in /  0.25mm meteobridge W/m2
17:43 73.6 °F /  23.1 °C 57.9 °F /  14.4 °C 29.52in /  999.5hPa SE 0.9mph /  1.4km/h 1.0mph /  1.6km/h 58% 0.01in /  0.25mm meteobridge W/m2
17:50 73.6 °F /  23.1 °C 55.9 °F /  13.3 °C 29.52in /  999.5hPa Calm     54% 0.01in /  0.25mm meteobridge W/m2
17:56 74.1 °F /  23.4 °C 49.6 °F /  9.8 °C 29.52in /  999.5hPa South 4.9mph /  7.9km/h 5.0mph /  8km/h 42% 0.01in /  0.25mm meteobridge W/m2
18:02 75.6 °F /  24.2 °C 49.5 °F /  9.7 °C 29.52in /  999.5hPa South 4.0mph /  6.4km/h 10.0mph /  16.1km/h 40% 0.01in /  0.25mm meteobridge W/m2
18:08 75.6 °F /  24.2 °C 48.9 °F /  9.4 °C 29.53in /  999.9hPa SSW 11.0mph /  17.7km/h 14.0mph /  22.5km/h 39% 0.01in /  0.25mm meteobridge W/m2
18:14 74.7 °F /  23.7 °C 48.7 °F /  9.3 °C 29.53in /  999.9hPa SSW 8.1mph /  13km/h 11.0mph /  17.7km/h 40% 0.01in /  0.25mm meteobridge W/m2
18:34 74.7 °F /  23.7 °C 51.3 °F /  10.7 °C 29.53in /  999.9hPa Calm   1.0mph /  1.6km/h 44% 0.00in /  0mm meteobridge W/m2
18:41 75.0 °F /  23.9 °C 50.4 °F /  10.2 °C 29.54in /  1000.2hPa Calm     42% 0.00in /  0mm meteobridge W/m2
18:47 75.0 °F /  23.9 °C 49.6 °F /  9.8 °C 29.54in /  1000.2hPa South 2.0mph /  3.2km/h 2.0mph /  3.2km/h 41% 0.00in /  0mm meteobridge W/m2
18:53 75.0 °F /  23.9 °C 50.4 °F /  10.2 °C 29.54in /  1000.2hPa Calm   1.0mph /  1.6km/h 42% 0.00in /  0mm meteobridge W/m2
18:59 75.0 °F /  23.9 °C 49.6 °F /  9.8 °C 29.54in /  1000.2hPa Calm     41% 0.00in /  0mm meteobridge W/m2
19:06 75.0 °F /  23.9 °C 49.6 °F /  9.8 °C 29.54in /  1000.2hPa Calm   -999.0mph /  -1607.7km/h 41% 0.00in /  0mm meteobridge W/m2
19:12 75.0 °F /  23.9 °C 49.6 °F /  9.8 °C 29.55in /  1000.6hPa North -999.9mph /  -1609.1km/h -999.0mph /  -1607.7km/h 41% 0.00in /  0mm meteobridge W/m2
Regenstein, Windhoek, Namibia
Compliments of Weather Underground - 2.5 mb